createdAt,value
2022-09-28T00:00:32.865Z,0.00
2022-09-28T00:01:33.009Z,0.00
2022-09-28T00:02:33.195Z,0.00
2022-09-28T00:03:33.200Z,0.00
2022-09-28T00:04:33.322Z,0.00
2022-09-28T00:05:33.417Z,0.00
2022-09-28T00:06:33.690Z,0.00
2022-09-28T00:07:33.664Z,0.00
2022-09-28T00:08:33.802Z,0.00
2022-09-28T00:09:33.886Z,0.00
2022-09-28T00:10:34.008Z,0.00
2022-09-28T00:11:34.216Z,0.00
2022-09-28T00:12:34.269Z,0.00
2022-09-28T00:13:34.342Z,0.00
2022-09-28T00:14:34.454Z,0.00
2022-09-28T00:15:34.560Z,0.00
2022-09-28T00:16:34.852Z,0.00
2022-09-28T00:17:34.797Z,0.00
2022-09-28T00:18:34.903Z,0.00
2022-09-28T00:19:35.100Z,0.00
2022-09-28T00:20:35.135Z,0.00
2022-09-28T00:21:35.323Z,0.00
2022-09-28T00:22:35.373Z,0.00
2022-09-28T00:23:35.493Z,0.00
2022-09-28T00:24:35.597Z,0.00
2022-09-28T00:25:35.683Z,0.00
2022-09-28T00:26:35.862Z,0.00
2022-09-28T00:27:35.901Z,0.00
2022-09-28T00:28:36.010Z,0.00
2022-09-28T00:29:36.127Z,0.00
2022-09-28T00:30:36.234Z,0.00
2022-09-28T00:31:36.468Z,0.00
2022-09-28T00:32:36.453Z,0.00
2022-09-28T00:33:36.562Z,0.00
2022-09-28T00:34:36.710Z,0.00
2022-09-28T00:35:36.813Z,0.00
2022-09-28T00:36:36.939Z,0.00
2022-09-28T00:37:37.065Z,0.00
2022-09-28T00:38:37.143Z,0.00
2022-09-28T00:39:37.237Z,0.00
2022-09-28T00:40:37.417Z,0.00
2022-09-28T00:41:37.478Z,0.00
2022-09-28T00:42:37.606Z,0.00
2022-09-28T00:43:37.700Z,0.00
2022-09-28T00:44:37.829Z,0.00
2022-09-28T00:45:37.973Z,0.00
2022-09-28T00:46:38.214Z,0.00
2022-09-28T00:47:38.189Z,0.00
2022-09-28T00:48:38.276Z,0.00
2022-09-28T00:49:38.386Z,0.00
2022-09-28T00:50:38.504Z,0.00
2022-09-28T00:51:38.683Z,0.00
2022-09-28T00:52:39.138Z,0.00
2022-09-28T00:53:38.846Z,0.00
2022-09-28T00:54:38.977Z,0.00
2022-09-28T00:55:39.054Z,0.00
2022-09-28T00:56:39.185Z,0.00
2022-09-28T00:57:39.243Z,0.00
2022-09-28T00:58:39.357Z,0.00
2022-09-28T00:59:39.464Z,0.00
2022-09-28T01:00:39.635Z,0.00
2022-09-28T01:01:39.779Z,0.00
2022-09-28T01:02:39.802Z,0.00
2022-09-28T01:03:39.895Z,0.00
2022-09-28T01:04:40.031Z,0.00
2022-09-28T01:05:40.132Z,0.00
2022-09-28T01:06:40.487Z,0.00
2022-09-28T01:07:40.354Z,0.00
2022-09-28T01:08:40.461Z,0.00
2022-09-28T01:09:40.569Z,0.00
2022-09-28T01:10:40.680Z,0.00
2022-09-28T01:11:40.831Z,0.00
2022-09-28T01:12:40.899Z,0.00
2022-09-28T01:13:41.029Z,0.00
2022-09-28T01:14:41.130Z,0.00
2022-09-28T01:15:41.249Z,0.00
2022-09-28T01:16:41.561Z,0.00
2022-09-28T01:17:41.456Z,0.00
2022-09-28T01:18:41.559Z,0.00
2022-09-28T01:19:41.710Z,0.00
2022-09-28T01:20:41.794Z,0.00
2022-09-28T01:21:41.937Z,0.00
2022-09-28T01:22:42.016Z,0.00
2022-09-28T01:23:42.147Z,0.00
2022-09-28T01:24:42.260Z,0.00
2022-09-28T01:25:42.390Z,0.00
2022-09-28T01:26:42.508Z,0.00
2022-09-28T01:27:42.606Z,0.00
2022-09-28T01:28:42.726Z,0.00
2022-09-28T01:29:42.816Z,0.00
2022-09-28T01:30:42.946Z,0.00
2022-09-28T01:31:43.100Z,0.00
2022-09-28T01:32:43.177Z,0.00
2022-09-28T01:33:43.293Z,0.00
2022-09-28T01:34:43.416Z,0.00
2022-09-28T01:35:43.507Z,0.00
2022-09-28T01:36:43.655Z,0.00
2022-09-28T01:37:43.733Z,0.00
2022-09-28T01:38:43.822Z,0.00
2022-09-28T01:39:43.954Z,0.00
2022-09-28T01:40:44.089Z,0.00
2022-09-28T01:41:44.328Z,0.00
2022-09-28T01:42:44.322Z,0.00
2022-09-28T01:43:44.380Z,0.00
2022-09-28T01:44:44.505Z,0.00
2022-09-28T01:45:44.676Z,0.00
2022-09-28T01:46:44.744Z,0.00
2022-09-28T01:47:44.846Z,0.00
2022-09-28T01:48:44.960Z,0.00
2022-09-28T01:49:45.081Z,0.00
2022-09-28T01:50:45.189Z,0.00
2022-09-28T01:51:45.458Z,0.00
2022-09-28T01:52:45.408Z,0.00
2022-09-28T01:53:45.509Z,0.00
2022-09-28T01:54:45.628Z,0.00
2022-09-28T01:55:45.768Z,0.00
2022-09-28T01:56:45.961Z,0.00
2022-09-28T01:57:45.987Z,0.00
2022-09-28T01:58:46.111Z,0.00
2022-09-28T01:59:46.216Z,0.00
2022-09-28T02:00:46.378Z,0.00
2022-09-28T02:01:46.537Z,0.00
2022-09-28T02:02:46.559Z,0.00
2022-09-28T02:03:46.665Z,0.00
2022-09-28T02:04:46.786Z,0.00
2022-09-28T02:05:46.914Z,0.00
2022-09-28T02:06:47.139Z,0.00
2022-09-28T02:07:47.178Z,0.00
2022-09-28T02:08:47.246Z,0.00
2022-09-28T02:09:47.356Z,0.00
2022-09-28T02:10:47.475Z,0.00
2022-09-28T02:11:47.682Z,0.00
2022-09-28T02:12:47.708Z,0.00
2022-09-28T02:13:47.803Z,0.00
2022-09-28T02:14:47.933Z,0.00
2022-09-28T02:15:48.041Z,0.00
2022-09-28T02:16:48.182Z,0.00
2022-09-28T02:17:48.281Z,0.00
2022-09-28T02:18:48.383Z,0.00
2022-09-28T02:19:48.501Z,0.00
2022-09-28T02:20:48.600Z,0.00
2022-09-28T02:21:48.750Z,0.00
2022-09-28T02:22:48.820Z,0.00
2022-09-28T02:23:48.939Z,0.00
2022-09-28T02:24:49.063Z,0.00
2022-09-28T02:25:49.169Z,0.00
2022-09-28T02:26:49.330Z,0.00
2022-09-28T02:27:49.407Z,0.00
2022-09-28T02:28:49.508Z,0.00
2022-09-28T02:29:49.638Z,0.00
2022-09-28T02:30:49.828Z,0.00
2022-09-28T02:31:49.979Z,0.00
2022-09-28T02:32:50.031Z,0.00
2022-09-28T02:33:50.627Z,0.00
2022-09-28T02:34:50.265Z,0.00
2022-09-28T02:35:50.387Z,0.00
2022-09-28T02:36:50.506Z,0.00
2022-09-28T02:37:50.596Z,0.00
2022-09-28T02:38:50.717Z,0.00
2022-09-28T02:39:50.827Z,0.00
2022-09-28T02:40:50.990Z,0.00
2022-09-28T02:41:51.065Z,0.00
2022-09-28T02:42:51.210Z,0.00
2022-09-28T02:43:51.265Z,0.00
2022-09-28T02:44:51.444Z,0.00
2022-09-28T02:45:51.521Z,0.00
2022-09-28T02:46:51.623Z,0.00
2022-09-28T02:47:51.703Z,0.00
2022-09-28T02:49:04.949Z,0.00
2022-09-28T02:49:52.942Z,0.00
2022-09-28T02:50:52.057Z,0.00
2022-09-28T02:51:52.233Z,0.00
2022-09-28T02:52:52.342Z,0.00
2022-09-28T02:53:52.401Z,0.00
2022-09-28T02:54:52.513Z,0.00
2022-09-28T02:55:52.635Z,0.00
2022-09-28T02:56:52.774Z,0.00
2022-09-28T02:57:52.850Z,0.00
2022-09-28T02:58:52.939Z,0.00
2022-09-28T02:59:53.051Z,0.00
2022-09-28T03:00:53.223Z,0.00
2022-09-28T03:01:53.410Z,0.00
2022-09-28T03:02:53.399Z,0.00
2022-09-28T03:03:53.513Z,0.00
2022-09-28T03:04:53.610Z,0.00
2022-09-28T03:05:53.734Z,0.00
2022-09-28T03:06:54.041Z,0.00
2022-09-28T03:07:54.007Z,0.00
2022-09-28T03:08:54.049Z,0.00
2022-09-28T03:09:54.165Z,0.00
2022-09-28T03:10:54.278Z,0.00
2022-09-28T03:11:54.567Z,0.00
2022-09-28T03:12:54.509Z,0.00
2022-09-28T03:13:54.638Z,0.00
2022-09-28T03:14:54.724Z,0.00
2022-09-28T03:15:54.858Z,0.00
2022-09-28T03:16:54.987Z,0.00
2022-09-28T03:17:55.066Z,0.00
2022-09-28T03:18:55.172Z,0.00
2022-09-28T03:19:55.285Z,0.00
2022-09-28T03:20:55.386Z,0.00
2022-09-28T03:21:55.675Z,0.00
2022-09-28T03:23:22.716Z,0.00
2022-09-28T03:23:56.743Z,0.00
2022-09-28T03:24:55.853Z,0.00
2022-09-28T03:25:55.953Z,0.00
2022-09-28T03:26:56.153Z,0.00
2022-09-28T03:27:56.203Z,0.00
2022-09-28T03:28:56.309Z,0.00
2022-09-28T03:29:56.457Z,0.00
2022-09-28T03:30:56.529Z,0.00
2022-09-28T03:31:56.750Z,0.00
2022-09-28T03:32:56.791Z,0.00
2022-09-28T03:33:56.910Z,0.00
2022-09-28T03:34:56.994Z,0.00
2022-09-28T03:35:57.130Z,0.00
2022-09-28T03:36:57.259Z,0.00
2022-09-28T03:37:57.404Z,0.00
2022-09-28T03:38:57.528Z,0.00
2022-09-28T03:39:57.632Z,0.00
2022-09-28T03:40:57.892Z,0.00
2022-09-28T03:41:57.952Z,0.00
2022-09-28T03:42:57.998Z,0.00
2022-09-28T03:43:58.155Z,0.00
2022-09-28T03:44:58.238Z,0.00
2022-09-28T03:45:58.437Z,0.00
2022-09-28T03:46:58.495Z,0.00
2022-09-28T03:47:58.618Z,0.00
2022-09-28T03:48:58.728Z,0.00
2022-09-28T03:49:58.862Z,0.00
2022-09-28T03:50:58.976Z,0.00
2022-09-28T03:51:59.096Z,0.00
2022-09-28T03:52:59.248Z,0.00
2022-09-28T03:53:59.318Z,0.00
2022-09-28T03:54:59.413Z,0.00
2022-09-28T03:55:59.514Z,0.00
2022-09-28T03:56:59.676Z,0.00
2022-09-28T03:57:59.739Z,0.00
2022-09-28T03:58:59.845Z,0.00
2022-09-28T03:59:59.982Z,0.00
2022-09-28T04:01:00.155Z,0.00
2022-09-28T04:02:00.245Z,0.00
2022-09-28T04:03:00.312Z,0.00
2022-09-28T04:04:00.426Z,0.00
2022-09-28T04:05:00.592Z,0.00
2022-09-28T04:06:00.642Z,0.00
2022-09-28T04:07:00.832Z,0.00
2022-09-28T04:08:00.902Z,0.00
2022-09-28T04:09:01.032Z,0.00
2022-09-28T04:10:01.132Z,0.00
2022-09-28T04:11:01.231Z,0.00
2022-09-28T04:12:04.273Z,0.00
2022-09-28T04:13:01.462Z,0.00
2022-09-28T04:14:01.581Z,0.00
2022-09-28T04:15:01.703Z,0.00
2022-09-28T04:16:01.915Z,0.00
2022-09-28T04:17:01.922Z,0.00
2022-09-28T04:18:02.027Z,0.00
2022-09-28T04:19:02.127Z,0.00
2022-09-28T04:20:02.265Z,0.00
2022-09-28T04:21:02.347Z,0.00
2022-09-28T04:22:02.489Z,0.00
2022-09-28T04:23:03.147Z,0.00
2022-09-28T04:24:02.691Z,0.00
2022-09-28T04:25:02.786Z,0.00
2022-09-28T04:26:02.895Z,0.00
2022-09-28T04:27:03.032Z,0.00
2022-09-28T04:28:03.136Z,0.00
2022-09-28T04:29:06.571Z,0.00
2022-09-28T04:30:03.397Z,0.00
2022-09-28T04:31:03.465Z,0.00
2022-09-28T04:32:03.662Z,0.00
2022-09-28T04:33:03.697Z,0.00
2022-09-28T04:34:03.794Z,0.00
2022-09-28T04:35:03.916Z,0.00
2022-09-28T04:36:04.015Z,0.00
2022-09-28T04:37:04.166Z,0.00
2022-09-28T04:38:04.292Z,0.00
2022-09-28T04:39:04.334Z,0.00
2022-09-28T04:40:04.435Z,0.00
2022-09-28T04:41:04.554Z,0.00
2022-09-28T04:42:04.714Z,0.00
2022-09-28T04:43:04.797Z,0.00
2022-09-28T04:44:04.889Z,0.00
2022-09-28T04:45:05.010Z,0.00
2022-09-28T04:46:05.144Z,0.00
2022-09-28T04:47:05.514Z,0.00
2022-09-28T04:48:05.371Z,0.00
2022-09-28T04:49:05.478Z,0.00
2022-09-28T04:50:05.594Z,0.00
2022-09-28T04:51:05.712Z,0.00
2022-09-28T04:52:05.821Z,0.00
2022-09-28T04:53:05.912Z,0.00
2022-09-28T04:54:06.059Z,0.00
2022-09-28T04:55:06.163Z,0.00
2022-09-28T04:56:06.305Z,0.00
2022-09-28T04:57:06.466Z,4.00
2022-09-28T04:58:06.507Z,4.00
2022-09-28T04:59:06.608Z,4.00
2022-09-28T05:00:06.737Z,4.00
2022-09-28T05:01:06.883Z,4.00
2022-09-28T05:02:07.019Z,0.00
2022-09-28T05:03:07.086Z,4.00
2022-09-28T05:04:07.227Z,4.00
2022-09-28T05:05:07.284Z,4.00
2022-09-28T05:06:07.426Z,4.00
2022-09-28T05:07:07.557Z,4.00
2022-09-28T05:08:07.686Z,4.00
2022-09-28T05:09:07.785Z,8.00
2022-09-28T05:10:07.876Z,8.00
2022-09-28T05:11:08.008Z,8.00
2022-09-28T05:12:08.266Z,12.00
2022-09-28T05:13:08.228Z,16.00
2022-09-28T05:14:08.337Z,16.00
2022-09-28T05:15:08.469Z,20.00
2022-09-28T05:16:08.623Z,24.00
2022-09-28T05:17:08.690Z,28.00
2022-09-28T05:18:08.783Z,32.00
2022-09-28T05:19:08.913Z,36.00
2022-09-28T05:20:09.032Z,40.00
2022-09-28T05:21:10.156Z,52.00
2022-09-28T05:22:09.292Z,60.00
2022-09-28T05:23:09.355Z,68.00
2022-09-28T05:24:09.472Z,68.00
2022-09-28T05:25:09.605Z,84.00
2022-09-28T05:26:09.742Z,96.00
2022-09-28T05:27:09.837Z,108.00
2022-09-28T05:28:10.015Z,124.00
2022-09-28T05:29:10.095Z,144.00
2022-09-28T05:30:10.166Z,152.00
2022-09-28T05:31:10.270Z,172.00
2022-09-28T05:32:10.443Z,188.00
2022-09-28T05:33:10.533Z,204.00
2022-09-28T05:34:10.676Z,232.00
2022-09-28T05:35:10.729Z,252.00
2022-09-28T05:36:10.851Z,248.00
2022-09-28T05:37:11.009Z,264.00
2022-09-28T05:38:11.069Z,264.00
2022-09-28T05:39:11.267Z,276.00
2022-09-28T05:40:11.306Z,316.00
2022-09-28T05:41:11.483Z,360.00
2022-09-28T05:42:11.579Z,400.00
2022-09-28T05:43:11.637Z,424.00
2022-09-28T05:44:11.740Z,444.00
2022-09-28T05:45:11.858Z,492.00
2022-09-28T05:46:12.015Z,604.00
2022-09-28T05:47:12.116Z,532.00
2022-09-28T05:48:12.177Z,620.00
2022-09-28T05:49:12.290Z,612.00
2022-09-28T05:50:12.395Z,620.00
2022-09-28T05:51:12.530Z,544.00
2022-09-28T05:52:12.664Z,528.00
2022-09-28T05:53:12.731Z,548.00
2022-09-28T05:54:12.850Z,620.00
2022-09-28T05:55:12.967Z,628.00
2022-09-28T05:56:13.083Z,628.00
2022-09-28T05:57:13.232Z,728.00
2022-09-28T05:58:14.254Z,784.00
2022-09-28T05:59:13.416Z,788.00
2022-09-28T06:00:13.509Z,844.00
2022-09-28T06:01:13.706Z,956.00
2022-09-28T06:02:13.838Z,1016.00
2022-09-28T06:03:13.902Z,1060.00
2022-09-28T06:04:14.013Z,1196.00
2022-09-28T06:05:14.120Z,1208.00
2022-09-28T06:06:14.247Z,1200.00
2022-09-28T06:07:14.547Z,1272.00
2022-09-28T06:08:14.449Z,1380.00
2022-09-28T06:09:14.580Z,1408.00
2022-09-28T06:10:14.762Z,1432.00
2022-09-28T06:11:14.841Z,1660.00
2022-09-28T06:12:15.109Z,1764.00
2022-09-28T06:13:15.059Z,1840.00
2022-09-28T06:14:15.192Z,1820.00
2022-09-28T06:15:15.280Z,1832.00
2022-09-28T06:16:15.456Z,1892.00
2022-09-28T06:17:15.529Z,2188.00
2022-09-28T06:18:15.589Z,2492.00
2022-09-28T06:19:15.717Z,2500.00
2022-09-28T06:20:15.818Z,2424.00
2022-09-28T06:21:16.018Z,2380.00
2022-09-28T06:22:16.050Z,2348.00
2022-09-28T06:23:16.157Z,2484.00
2022-09-28T06:24:16.256Z,2824.00
2022-09-28T06:25:16.436Z,2744.00
2022-09-28T06:26:16.516Z,2588.00
2022-09-28T06:27:16.591Z,2496.00
2022-09-28T06:28:16.695Z,2304.00
2022-09-28T06:29:19.430Z,1988.00
2022-09-28T06:30:16.904Z,2004.00
2022-09-28T06:31:17.078Z,2188.00
2022-09-28T06:32:17.116Z,2292.00
2022-09-28T06:33:17.225Z,2752.00
2022-09-28T06:34:17.509Z,2984.00
2022-09-28T06:35:17.444Z,2944.00
2022-09-28T06:36:17.583Z,2884.00
2022-09-28T06:37:17.679Z,3044.00
2022-09-28T06:38:17.831Z,3148.00
2022-09-28T06:39:17.981Z,3020.00
2022-09-28T06:40:18.102Z,3188.00
2022-09-28T06:41:18.184Z,2888.00
2022-09-28T06:42:18.302Z,2812.00
2022-09-28T06:43:18.414Z,2768.00
2022-09-28T06:44:18.679Z,2864.00
2022-09-28T06:45:18.660Z,2860.00
2022-09-28T06:46:18.844Z,2844.00
2022-09-28T06:47:18.861Z,2684.00
2022-09-28T06:48:18.980Z,2628.00
2022-09-28T06:49:19.712Z,2492.00
2022-09-28T06:50:19.190Z,2380.00
2022-09-28T06:51:19.349Z,2428.00
2022-09-28T06:52:19.421Z,2560.00
2022-09-28T06:53:19.510Z,2968.00
2022-09-28T06:54:19.637Z,2884.00
2022-09-28T06:55:19.758Z,3320.00
2022-09-28T06:56:19.877Z,3548.00
2022-09-28T06:57:19.959Z,3560.00
2022-09-28T06:58:20.086Z,3572.00
2022-09-28T06:59:20.220Z,3524.00
2022-09-28T07:00:20.327Z,3740.00
2022-09-28T07:01:20.517Z,3852.00
2022-09-28T07:02:20.588Z,3680.00
2022-09-28T07:03:20.667Z,3556.00
2022-09-28T07:04:20.810Z,3524.00
2022-09-28T07:05:20.936Z,3560.00
2022-09-28T07:06:21.035Z,3604.00
2022-09-28T07:07:21.130Z,3824.00
2022-09-28T07:08:21.233Z,4272.00
2022-09-28T07:09:32.400Z,4340.00
2022-09-28T07:10:22.442Z,4024.00
2022-09-28T07:11:21.586Z,4168.00
2022-09-28T07:12:21.674Z,4560.00
2022-09-28T07:13:46.715Z,4520.00
2022-09-28T07:14:40.037Z,4780.00
2022-09-28T07:15:22.999Z,4724.00
2022-09-28T07:16:26.944Z,4912.00
2022-09-28T07:17:23.286Z,4904.00
2022-09-28T07:18:22.348Z,4712.00
2022-09-28T07:19:22.466Z,4516.00
2022-09-28T07:20:22.593Z,4436.00
2022-09-28T07:21:29.926Z,4320.00
2022-09-28T07:22:39.553Z,3964.00
2022-09-28T07:23:23.882Z,4032.00
2022-09-28T07:24:23.003Z,4688.00
2022-09-28T07:25:23.129Z,5632.00
2022-09-28T07:26:24.556Z,5624.00
2022-09-28T07:27:28.118Z,5420.00
2022-09-28T07:28:24.439Z,5096.00
2022-09-28T07:29:23.580Z,5180.00
2022-09-28T07:30:23.686Z,5060.00
2022-09-28T07:31:23.803Z,4972.00
2022-09-28T07:32:23.924Z,5148.00
2022-09-28T07:33:23.974Z,5892.00
2022-09-28T07:34:24.099Z,6272.00
2022-09-28T07:35:24.210Z,7164.00
2022-09-28T07:36:24.327Z,7380.00
2022-09-28T07:37:24.447Z,7368.00
2022-09-28T07:38:24.558Z,7196.00
2022-09-28T07:39:24.679Z,7032.00
2022-09-28T07:40:24.865Z,6884.00
2022-09-28T07:41:24.906Z,6476.00
2022-09-28T07:42:25.027Z,5932.00
2022-09-28T07:43:25.144Z,5440.00
2022-09-28T07:44:25.234Z,5608.00
2022-09-28T07:45:25.363Z,5968.00
2022-09-28T07:46:25.623Z,6288.00
2022-09-28T07:47:25.603Z,6924.00
2022-09-28T07:48:25.722Z,7620.00
2022-09-28T07:49:25.825Z,9016.00
2022-09-28T07:50:25.922Z,8772.00
2022-09-28T07:51:26.093Z,8940.00
2022-09-28T07:52:26.162Z,9512.00
2022-09-28T07:53:26.254Z,9988.00
2022-09-28T07:54:26.374Z,9816.00
2022-09-28T07:55:26.501Z,11484.00
2022-09-28T07:56:26.642Z,9724.00
2022-09-28T07:57:26.705Z,9444.00
2022-09-28T07:58:26.816Z,9532.00
2022-09-28T07:59:26.925Z,9072.00
2022-09-28T08:00:28.938Z,9032.00
2022-09-28T08:01:28.249Z,7772.00
2022-09-28T08:02:27.319Z,8656.00
2022-09-28T08:03:27.391Z,8560.00
2022-09-28T08:04:27.478Z,9076.00
2022-09-28T08:05:27.591Z,8768.00
2022-09-28T08:06:27.740Z,8788.00
2022-09-28T08:07:27.819Z,9288.00
2022-09-28T08:08:27.920Z,10556.00
2022-09-28T08:09:28.021Z,11924.00
2022-09-28T08:10:28.160Z,13096.00
2022-09-28T08:11:28.308Z,14464.00
2022-09-28T08:12:28.400Z,15680.00
2022-09-28T08:13:28.518Z,13792.00
2022-09-28T08:14:28.669Z,11000.00
2022-09-28T08:15:28.817Z,8692.00
2022-09-28T08:16:29.065Z,7780.00
2022-09-28T08:17:29.056Z,7392.00
2022-09-28T08:18:29.200Z,7968.00
2022-09-28T08:19:29.347Z,9136.00
2022-09-28T08:20:29.495Z,10708.00
2022-09-28T08:21:29.667Z,12692.00
2022-09-28T08:22:29.767Z,14112.00
2022-09-28T08:23:29.856Z,14220.00
2022-09-28T08:24:30.016Z,13328.00
2022-09-28T08:25:30.108Z,11820.00
2022-09-28T08:26:30.289Z,10916.00
2022-09-28T08:27:30.364Z,10128.00
2022-09-28T08:28:30.530Z,10304.00
2022-09-28T08:29:30.617Z,11860.00
2022-09-28T08:30:30.764Z,13568.00
2022-09-28T08:31:30.856Z,13696.00
2022-09-28T08:32:30.956Z,14188.00
2022-09-28T08:33:31.084Z,13708.00
2022-09-28T08:34:31.205Z,13316.00
2022-09-28T08:35:31.350Z,13744.00
2022-09-28T08:36:31.517Z,14072.00
2022-09-28T08:37:31.618Z,13116.00
2022-09-28T08:38:31.784Z,11820.00
2022-09-28T08:39:31.882Z,11956.00
2022-09-28T08:40:32.068Z,12744.00
2022-09-28T08:41:32.174Z,11884.00
2022-09-28T08:42:32.303Z,10408.00
2022-09-28T08:43:32.445Z,9536.00
2022-09-28T08:44:32.660Z,9580.00
2022-09-28T08:45:32.713Z,9792.00
2022-09-28T08:46:32.911Z,10360.00
2022-09-28T08:47:32.971Z,11660.00
2022-09-28T08:48:33.091Z,12084.00
2022-09-28T08:49:33.476Z,12204.00
2022-09-28T08:50:33.363Z,11964.00
2022-09-28T08:51:33.553Z,12084.00
2022-09-28T08:52:33.651Z,12876.00
2022-09-28T08:53:33.793Z,13924.00
2022-09-28T08:54:33.939Z,13260.00
2022-09-28T08:55:34.091Z,11052.00
2022-09-28T08:56:34.264Z,10612.00
2022-09-28T08:57:34.362Z,12480.00
2022-09-28T08:58:34.538Z,13664.00
2022-09-28T08:59:34.640Z,13796.00
2022-09-28T09:00:34.799Z,14400.00
2022-09-28T09:01:35.030Z,13836.00
2022-09-28T09:02:35.048Z,12328.00
2022-09-28T09:03:35.194Z,11280.00
2022-09-28T09:04:35.267Z,10164.00
2022-09-28T09:05:35.420Z,10448.00
2022-09-28T09:06:35.659Z,11124.00
2022-09-28T09:07:35.652Z,11396.00
2022-09-28T09:08:35.808Z,10564.00
2022-09-28T09:09:35.947Z,11164.00
2022-09-28T09:10:36.038Z,11084.00
2022-09-28T09:11:36.197Z,12360.00
2022-09-28T09:12:36.318Z,13948.00
2022-09-28T09:13:36.427Z,14772.00
2022-09-28T09:14:36.567Z,13736.00
2022-09-28T09:15:36.698Z,10100.00
2022-09-28T09:16:36.895Z,7636.00
2022-09-28T09:17:36.976Z,11604.00
2022-09-28T09:18:37.116Z,14432.00
2022-09-28T09:19:37.298Z,14428.00
2022-09-28T09:20:37.355Z,12048.00
2022-09-28T09:21:37.485Z,14696.00
2022-09-28T09:22:37.586Z,14432.00
2022-09-28T09:23:37.725Z,13196.00
2022-09-28T09:24:37.865Z,13120.00
2022-09-28T09:25:38.712Z,12544.00
2022-09-28T09:26:38.116Z,12032.00
2022-09-28T09:27:38.205Z,11564.00
2022-09-28T09:28:38.362Z,12388.00
2022-09-28T09:29:38.445Z,14488.00
2022-09-28T09:30:38.619Z,17664.00
2022-09-28T09:31:38.755Z,15188.00
2022-09-28T09:32:38.844Z,15072.00
2022-09-28T09:33:38.995Z,12316.00
2022-09-28T09:34:39.103Z,14732.00
2022-09-28T09:35:39.246Z,10752.00
2022-09-28T09:36:39.405Z,17088.00
2022-09-28T09:37:39.508Z,13460.00
2022-09-28T09:38:39.652Z,12524.00
2022-09-28T09:39:39.763Z,14348.00
2022-09-28T09:40:39.918Z,18048.00
2022-09-28T09:41:40.016Z,17952.00
2022-09-28T09:42:40.123Z,21600.00
2022-09-28T09:43:40.225Z,22400.00
2022-09-28T09:44:40.338Z,23936.00
2022-09-28T09:45:40.476Z,24320.00
2022-09-28T09:46:40.602Z,20480.00
2022-09-28T09:47:40.673Z,28000.00
2022-09-28T09:48:40.762Z,27360.00
2022-09-28T09:49:40.922Z,27616.00
2022-09-28T09:50:41.031Z,28672.00
2022-09-28T09:51:41.234Z,21440.00
2022-09-28T09:52:44.303Z,21184.00
2022-09-28T09:53:41.422Z,19744.00
2022-09-28T09:54:41.515Z,23328.00
2022-09-28T09:55:41.658Z,24160.00
2022-09-28T09:56:41.841Z,26496.00
2022-09-28T09:57:41.939Z,21344.00
2022-09-28T09:58:42.101Z,29920.00
2022-09-28T09:59:42.324Z,26816.00
2022-09-28T10:00:42.320Z,24192.00
2022-09-28T10:01:42.539Z,22432.00
2022-09-28T10:02:42.692Z,18784.00
2022-09-28T10:03:42.721Z,17856.00
2022-09-28T10:04:42.860Z,19552.00
2022-09-28T10:05:43.020Z,14272.00
2022-09-28T10:06:43.169Z,18016.00
2022-09-28T10:07:43.716Z,18752.00
2022-09-28T10:08:43.406Z,18432.00
2022-09-28T10:09:43.508Z,20160.00
2022-09-28T10:10:43.610Z,19936.00
2022-09-28T10:11:43.778Z,19072.00
2022-09-28T10:12:43.918Z,19296.00
2022-09-28T10:13:44.007Z,19200.00
2022-09-28T10:14:44.160Z,19328.00
2022-09-28T10:15:44.248Z,20480.00
2022-09-28T10:16:44.511Z,31328.00
2022-09-28T10:17:44.529Z,23040.00
2022-09-28T10:18:44.629Z,18528.00
2022-09-28T10:19:44.738Z,20288.00
2022-09-28T10:20:44.961Z,11564.00
2022-09-28T10:21:44.992Z,7628.00
2022-09-28T10:22:45.078Z,5160.00
2022-09-28T10:23:45.208Z,5952.00
2022-09-28T10:24:45.322Z,98272.00
2022-09-28T10:25:45.477Z,107488.00
2022-09-28T10:26:45.617Z,94304.00
2022-09-28T10:27:45.707Z,10160.00
2022-09-28T10:28:45.876Z,122368.00
2022-09-28T10:29:45.956Z,128384.00
2022-09-28T10:30:46.158Z,129376.00
2022-09-28T10:31:46.238Z,135392.00
2022-09-28T10:32:46.347Z,146976.00
2022-09-28T10:33:46.506Z,141696.00
2022-09-28T10:34:50.261Z,142016.00
2022-09-28T10:35:46.721Z,146592.00
2022-09-28T10:36:46.882Z,144640.00
2022-09-28T10:37:46.999Z,146496.00
2022-09-28T10:38:47.076Z,144000.00
2022-09-28T10:39:47.217Z,146304.00
2022-09-28T10:40:47.347Z,152416.00
2022-09-28T10:41:47.447Z,158880.00
2022-09-28T10:42:47.545Z,158592.00
2022-09-28T10:43:50.170Z,21440.00
2022-09-28T10:44:47.796Z,139296.00
2022-09-28T10:45:48.014Z,7432.00
2022-09-28T10:46:48.104Z,113536.00
2022-09-28T10:47:48.214Z,57376.00
2022-09-28T10:48:48.298Z,104224.00
2022-09-28T10:49:48.445Z,74240.00
2022-09-28T10:50:48.531Z,9676.00
2022-09-28T10:51:48.730Z,9468.00
2022-09-28T10:52:48.826Z,6116.00
2022-09-28T10:53:48.933Z,90592.00
2022-09-28T10:54:49.099Z,69024.00
2022-09-28T10:55:49.214Z,14668.00
2022-09-28T10:56:49.319Z,15280.00
2022-09-28T10:57:49.426Z,11964.00
2022-09-28T10:58:49.524Z,57824.00
2022-09-28T10:59:49.663Z,31488.00
2022-09-28T11:00:49.810Z,27744.00
2022-09-28T11:01:50.043Z,12464.00
2022-09-28T11:02:50.087Z,70848.00
2022-09-28T11:03:50.215Z,67072.00
2022-09-28T11:04:50.333Z,67072.00
2022-09-28T11:05:50.427Z,69280.00
2022-09-28T11:06:50.808Z,68096.00
2022-09-28T11:07:50.704Z,23392.00
2022-09-28T11:08:50.859Z,23648.00
2022-09-28T11:09:50.993Z,23936.00
2022-09-28T11:10:51.114Z,14944.00
2022-09-28T11:11:51.262Z,15028.00
2022-09-28T11:12:51.363Z,14484.00
2022-09-28T11:13:51.468Z,14036.00
2022-09-28T11:14:51.571Z,11776.00
2022-09-28T11:15:51.672Z,10548.00
2022-09-28T11:16:51.927Z,9164.00
2022-09-28T11:17:51.894Z,10572.00
2022-09-28T11:18:51.971Z,11468.00
2022-09-28T11:19:52.081Z,10004.00
2022-09-28T11:20:52.246Z,9208.00
2022-09-28T11:21:52.370Z,9028.00
2022-09-28T11:22:53.654Z,8868.00
2022-09-28T11:23:52.610Z,10344.00
2022-09-28T11:24:52.732Z,14264.00
2022-09-28T11:25:52.841Z,14064.00
2022-09-28T11:26:53.521Z,11728.00
2022-09-28T11:27:53.118Z,10408.00
2022-09-28T11:28:53.230Z,9148.00
2022-09-28T11:29:53.350Z,8912.00
2022-09-28T11:30:53.504Z,8608.00
2022-09-28T11:31:53.618Z,7792.00
2022-09-28T11:32:53.763Z,7608.00
2022-09-28T11:33:53.822Z,7020.00
2022-09-28T11:34:59.453Z,6696.00
2022-09-28T11:35:55.066Z,7060.00
2022-09-28T11:36:56.455Z,9596.00
2022-09-28T11:37:55.339Z,11116.00
2022-09-28T11:38:54.475Z,10560.00
2022-09-28T11:39:54.629Z,7916.00
2022-09-28T11:40:54.843Z,5960.00
2022-09-28T11:41:54.889Z,4544.00
2022-09-28T11:42:55.041Z,3596.00
2022-09-28T11:43:55.172Z,3500.00
2022-09-28T11:44:55.228Z,4040.00
2022-09-28T11:45:55.392Z,4676.00
2022-09-28T11:47:02.524Z,5428.00
2022-09-28T11:47:55.592Z,6688.00
2022-09-28T11:48:55.692Z,7644.00
2022-09-28T11:49:55.782Z,9124.00
2022-09-28T11:50:55.942Z,10216.00
2022-09-28T11:51:56.062Z,10960.00
2022-09-28T11:52:56.174Z,12124.00
2022-09-28T11:53:56.273Z,12472.00
2022-09-28T11:54:56.424Z,13824.00
2022-09-28T11:55:56.513Z,14880.00
2022-09-28T11:56:56.696Z,17504.00
2022-09-28T11:57:56.741Z,18336.00
2022-09-28T11:58:56.846Z,17984.00
2022-09-28T11:59:57.010Z,17472.00
2022-09-28T12:00:57.137Z,14380.00
2022-09-28T12:01:57.314Z,9792.00
2022-09-28T12:02:57.473Z,7140.00
2022-09-28T12:03:57.500Z,6384.00
2022-09-28T12:04:57.591Z,7108.00
2022-09-28T12:05:57.701Z,8164.00
2022-09-28T12:06:58.888Z,9964.00
2022-09-28T12:07:57.947Z,11052.00
2022-09-28T12:08:58.071Z,11768.00
2022-09-28T12:09:58.179Z,12500.00
2022-09-28T12:10:58.309Z,13084.00
2022-09-28T12:11:58.489Z,13340.00
2022-09-28T12:12:58.541Z,13448.00
2022-09-28T12:13:58.682Z,13524.00
2022-09-28T12:14:58.782Z,13784.00
2022-09-28T12:16:23.452Z,14312.00
2022-09-28T12:17:06.213Z,15368.00
2022-09-28T12:18:00.241Z,15264.00
2022-09-28T12:19:59.428Z,14720.00
2022-09-28T12:21:04.424Z,14532.00
2022-09-28T12:22:00.686Z,13300.00
2022-09-28T12:22:59.774Z,11496.00
2022-09-28T12:23:59.929Z,10648.00
2022-09-28T12:25:00.035Z,9532.00
2022-09-28T12:26:00.221Z,8800.00
2022-09-28T12:27:00.298Z,7556.00
2022-09-28T12:28:00.566Z,7120.00
2022-09-28T12:29:00.552Z,6656.00
2022-09-28T12:30:00.644Z,6252.00
2022-09-28T12:31:00.943Z,5452.00
2022-09-28T12:32:00.897Z,4980.00